Dades meteomassalio
Diari Summary for Gener 30, 2018 Units:  English    Metric   Both
« Previous Day
Next Day »
Diari Semanal Mensual Anual Personalitzat
  Maxima: Minima: Mijana:
Temperatura: TemperatureC °F -1.7 °F 4.2 °F
Rosada: DewpointC °F -2.7 °F 1.3 °F
Humitat: Humidity % 58 % 83 %
Velocitat del vent: WindSpeedKMH mph 0.0 mph 1.1 mph
Racha vent: WindSpeedGustKMH mph - -
Vent:- - East
Pressio: PressurehPa in 1030.7 in -
Pluja: 0.5 in    
Historical Graphs
 
 
Tabular Data for Gener 30, 2018
Time Temperature Dew Point Pressure Wind Wind Speed Wind Gust Humidity Rainfall Rate (Hourly) solar Conditions
TemperatureC °F DewpointC °F PressurehPa in Calm     Humidity % HourlyPrecipMM in SolarRadiationWatts/m^2 W/m2 Conditions
00:04 1.7 °F 0.5 °F 1036.1 in Calm     92 % 0.0 in 0.0 W/m2 RA
00:09 1.1 °F -0.1 °F 1036.1 in Calm     92 % 0.0 in 0.0 W/m2 CLR
00:14 1.7 °F 0.5 °F 1036.1 in Calm     92 % 0.0 in 0.0 W/m2 RA
00:19 1.1 °F -0.1 °F 1036.1 in Calm     92 % 0.0 in 0.0 W/m2
00:24 1.1 °F -0.1 °F 1036.1 in Calm     92 % 0.0 in 0.0 W/m2 CLR
00:29 1.1 °F -0.1 °F 1036.1 in Calm     92 % 0.0 in 0.0 W/m2 CLR
00:34 0.6 °F -0.6 °F 1036.1 in Calm     92 % 0.0 in 0.0 W/m2 CLR
00:39 0.6 °F -0.6 °F 1035.8 in Calm     92 % 0.0 in 0.0 W/m2 CLR
00:44 0.6 °F -0.6 °F 1035.8 in Calm     92 % 0.0 in 0.0 W/m2 CLR
00:49 0.6 °F -0.6 °F 1036.1 in Calm     92 % 0.0 in 0.0 W/m2 CLR
00:54 1.1 °F -0.1 °F 1035.8 in Calm     92 % 0.0 in 0.0 W/m2 CLR
00:59 0.6 °F -0.6 °F 1036.1 in Calm     92 % 0.0 in 0.0 W/m2 CLR
01:04 0.6 °F -0.6 °F 1035.8 in Calm     92 % 0.3 in 0.0 W/m2 CLR
01:09 0.6 °F -0.6 °F 1035.8 in Calm     92 % 0.3 in 0.0 W/m2 CLR
01:14 0.6 °F -0.6 °F 1035.8 in Calm     92 % 0.0 in 0.0 W/m2 CLR
01:19 0.6 °F -0.6 °F 1035.8 in Calm     92 % 0.0 in 0.0 W/m2 CLR
01:24 0.6 °F -0.6 °F 1035.8 in Calm     92 % 0.0 in 0.0 W/m2 CLR
01:29 0.6 °F -0.6 °F 1035.8 in Calm     92 % 0.0 in 0.0 W/m2 CLR
01:34 0.6 °F -0.6 °F 1035.8 in Calm     92 % 0.0 in 0.0 W/m2 CLR
01:39 0.6 °F -0.6 °F 1035.8 in Calm     92 % 0.0 in 0.0 W/m2 CLR
01:44 0.6 °F -0.6 °F 1035.8 in Calm     92 % 0.0 in 0.0 W/m2 CLR
01:49 0.6 °F -0.6 °F 1035.8 in Calm     92 % 0.0 in 0.0 W/m2 CLR
01:54 0.6 °F -0.6 °F 1035.4 in Calm     92 % 0.0 in 0.0 W/m2 CLR
01:59 0.0 °F -1.2 °F 1035.8 in Calm     92 % 0.0 in 0.0 W/m2 CLR
02:04 0.0 °F -1.2 °F 1035.8 in Calm     92 % 0.0 in 0.0 W/m2 CLR
02:09 0.0 °F -1.2 °F 1035.4 in Calm     92 % 0.0 in 0.0 W/m2 CLR
02:14 0.6 °F -0.6 °F 1035.4 in Calm     92 % 0.0 in 0.0 W/m2 CLR
02:19 0.6 °F -0.6 °F 1035.4 in Calm     92 % 0.0 in 0.0 W/m2 CLR
02:24 0.6 °F -0.6 °F 1035.4 in Calm     92 % 0.0 in 0.0 W/m2 CLR
02:30 0.0 °F -1.2 °F 1035.4 in Calm     92 % 0.0 in 0.0 W/m2 CLR
02:35 0.6 °F -0.6 °F 1035.4 in Calm     92 % 0.0 in 0.0 W/m2 CLR
02:40 0.6 °F -0.6 °F 1035.4 in Calm     92 % 0.0 in 0.0 W/m2 CLR
02:45 0.0 °F -1.2 °F 1035.4 in Calm     92 % 0.0 in 0.0 W/m2 CLR
02:50 0.0 °F -1.2 °F 1035.4 in Calm     92 % 0.0 in 0.0 W/m2 CLR
02:55 0.0 °F -1.0 °F 1035.4 in Calm     93 % 0.0 in 0.0 W/m2 CLR
03:00 0.0 °F -1.2 °F 1035.4 in Calm     92 % 0.0 in 0.0 W/m2 CLR
03:05 0.0 °F -1.2 °F 1035.4 in Calm     92 % 0.0 in 0.0 W/m2 CLR
03:10 0.0 °F -1.2 °F 1035.4 in Calm     92 % 0.0 in 0.0 W/m2 CLR
03:15 0.0 °F -1.2 °F 1035.4 in Calm     92 % 0.0 in 0.0 W/m2 CLR
03:20 0.0 °F -1.2 °F 1035.4 in Calm     92 % 0.0 in 0.0 W/m2 CLR
03:25 0.0 °F -1.2 °F 1035.4 in Calm     92 % 0.0 in 0.0 W/m2 CLR
03:30 0.0 °F -1.2 °F 1035.4 in Calm     92 % 0.0 in 0.0 W/m2 CLR
03:35 0.0 °F -1.2 °F 1035.1 in Calm     92 % 0.0 in 0.0 W/m2 CLR
03:40 0.0 °F -1.2 °F 1035.1 in Calm     92 % 0.0 in 0.0 W/m2 CLR
03:45 0.0 °F -1.2 °F 1035.1 in Calm     92 % 0.0 in 0.0 W/m2 CLR
03:50 0.0 °F -1.2 °F 1035.1 in Calm     92 % 0.0 in 0.0 W/m2 CLR
03:55 0.0 °F -1.2 °F 1035.1 in Calm     92 % 0.0 in 0.0 W/m2 CLR
04:00 0.0 °F -1.2 °F 1034.8 in Calm     92 % 0.0 in 0.0 W/m2 CLR
04:05 0.0 °F -1.0 °F 1034.8 in Calm     93 % 0.0 in 0.0 W/m2 CLR
04:10 0.0 °F -1.2 °F 1034.8 in Calm     92 % 0.0 in 0.0 W/m2 CLR
04:15 0.0 °F -1.2 °F 1034.8 in Calm     92 % 0.0 in 0.0 W/m2 CLR
04:20 0.0 °F -1.2 °F 1034.8 in Calm     92 % 0.0 in 0.0 W/m2 CLR
04:25 -0.6 °F -1.6 °F 1034.8 in Calm     93 % 0.0 in 0.0 W/m2 CLR
04:30 -0.6 °F -1.6 °F 1034.8 in Calm     93 % 0.0 in 0.0 W/m2 CLR
04:35 -0.6 °F -1.6 °F 1034.8 in Calm     93 % 0.0 in 0.0 W/m2 CLR
04:40 0.0 °F -1.0 °F 1034.8 in Calm     93 % 0.0 in 0.0 W/m2 CLR
04:45 0.0 °F -1.2 °F 1034.8 in Calm     92 % 0.0 in 0.0 W/m2 CLR
04:50 -0.6 °F -1.6 °F 1034.8 in Calm     93 % 0.0 in 0.0 W/m2 CLR
04:55 -0.6 °F -1.6 °F 1034.4 in Calm     93 % 0.0 in 0.0 W/m2 CLR
05:00 -0.6 °F -1.6 °F 1034.4 in Calm     93 % 0.0 in 0.0 W/m2 CLR
05:05 -0.6 °F -1.6 °F 1034.4 in Calm     93 % 0.0 in 0.0 W/m2 CLR
05:10 -0.6 °F -1.6 °F 1034.4 in Calm     93 % 0.0 in 0.0 W/m2 CLR
05:15 -0.6 °F -1.6 °F 1034.4 in Calm     93 % 0.0 in 0.0 W/m2 CLR
05:16 -0.6 °F -1.6 °F 1034.4 in Calm     93 % 0.0 in 0.0 W/m2 CLR
05:21 -0.6 °F -1.6 °F 1034.8 in Calm     93 % 0.0 in 0.0 W/m2 CLR
05:26 -0.6 °F -1.6 °F 1034.8 in Calm     93 % 0.0 in 0.0 W/m2 CLR
05:31 -0.6 °F -1.6 °F 1034.8 in Calm     93 % 0.0 in 0.0 W/m2 CLR
05:36 -0.6 °F -1.6 °F 1034.8 in Calm     93 % 0.0 in 0.0 W/m2 CLR
05:41 -0.6 °F -1.6 °F 1034.8 in Calm     93 % 0.0 in 0.0 W/m2 CLR
05:46 -0.6 °F -1.6 °F 1034.4 in Calm     93 % 0.0 in 0.0 W/m2 CLR
05:51 -0.6 °F -1.6 °F 1034.8 in Calm     93 % 0.0 in 0.0 W/m2 CLR
05:56 -0.6 °F -1.6 °F 1034.8 in Calm     93 % 0.0 in 0.0 W/m2 CLR
06:01 -0.6 °F -1.6 °F 1034.8 in Calm     93 % 0.0 in 0.0 W/m2 CLR
06:06 -0.6 °F -1.6 °F 1034.8 in Calm     93 % 0.0 in 0.0 W/m2 CLR
06:11 -0.6 °F -1.6 °F 1034.8 in Calm     93 % 0.0 in 0.0 W/m2 CLR
06:16 -1.1 °F -2.1 °F 1034.8 in Calm     93 % 0.0 in 0.0 W/m2 CLR
06:21 -0.6 °F -1.6 °F 1034.8 in Calm     93 % 0.0 in 0.0 W/m2 CLR
06:26 -0.6 °F -1.6 °F 1034.8 in Calm     93 % 0.0 in 0.0 W/m2 CLR
06:31 -0.6 °F -1.6 °F 1034.4 in Calm     93 % 0.0 in 0.0 W/m2 CLR
06:36 -0.6 °F -1.6 °F 1034.8 in Calm     93 % 0.0 in 0.0 W/m2 CLR
06:41 -0.6 °F -1.6 °F 1034.8 in Calm     93 % 0.0 in 0.0 W/m2 CLR
06:46 -0.6 °F -1.6 °F 1034.8 in Calm     93 % 0.0 in 0.0 W/m2 CLR
06:51 -1.1 °F -2.1 °F 1034.8 in Calm     93 % 0.0 in 0.0 W/m2 CLR
06:56 -1.1 °F -2.1 °F 1034.8 in Calm     93 % 0.0 in 0.0 W/m2 CLR
07:01 -1.1 °F -2.1 °F 1034.8 in Calm     93 % 0.0 in 0.0 W/m2 CLR
07:06 -1.1 °F -2.1 °F 1034.8 in Calm     93 % 0.0 in 0.0 W/m2 CLR
07:11 -1.1 °F -2.1 °F 1034.8 in Calm     93 % 0.0 in 0.0 W/m2 CLR
07:16 -1.1 °F -2.1 °F 1034.8 in Calm     93 % 0.0 in 0.0 W/m2 CLR
07:21 -1.1 °F -2.1 °F 1034.8 in Calm     93 % 0.0 in 0.0 W/m2 CLR
07:26 -1.1 °F -2.1 °F 1034.8 in Calm     93 % 0.0 in 0.0 W/m2 CLR
07:31 -1.1 °F -2.1 °F 1034.8 in Calm     93 % 0.0 in 0.0 W/m2 CLR
07:36 -1.1 °F -2.1 °F 1034.8 in Calm     93 % 0.0 in 0.0 W/m2 CLR
07:41 -1.1 °F -2.1 °F 1034.8 in Calm     93 % 0.0 in 0.0 W/m2 CLR
07:46 -1.1 °F -2.1 °F 1034.8 in Calm     93 % 0.0 in 0.0 W/m2 CLR
07:51 -1.1 °F -2.1 °F 1035.1 in Calm     93 % 0.0 in 0.0 W/m2 CLR
07:56 -1.1 °F -2.1 °F 1035.1 in Calm     93 % 0.0 in 0.0 W/m2 CLR
08:01 -1.1 °F -2.1 °F 1034.8 in Calm     93 % 0.0 in 0.0 W/m2 CLR
08:06 -1.1 °F -2.1 °F 1034.8 in Calm     93 % 0.0 in 0.0 W/m2 OVC
08:11 -1.7 °F -2.7 °F 1035.1 in Calm     93 % 0.0 in 5.0 W/m2 OVC
08:16 -1.1 °F -2.1 °F 1034.8 in Calm     93 % 0.0 in 7.0 W/m2 BKN
08:21 -1.1 °F -2.1 °F 1034.8 in Calm     93 % 0.0 in 9.0 W/m2 BKN
08:26 -1.1 °F -2.1 °F 1034.8 in Calm     93 % 0.0 in 11.0 W/m2 BKN
08:31 -1.1 °F -2.1 °F 1034.8 in Calm     93 % 0.0 in 14.0 W/m2 BKN
08:36 -1.1 °F -2.1 °F 1034.8 in Calm     93 % 0.0 in 18.0 W/m2 BKN
08:41 -1.1 °F -2.1 °F 1034.8 in Calm     93 % 0.0 in 25.0 W/m2 BKN
08:46 -1.1 °F -2.1 °F 1034.8 in Calm     93 % 0.0 in 33.0 W/m2 BKN
08:51 -0.6 °F -1.6 °F 1034.8 in Calm     93 % 0.0 in 49.0 W/m2 SCT
08:56 -1.1 °F -2.1 °F 1034.8 in Calm     93 % 0.0 in 54.0 W/m2 SCT
09:01 -0.6 °F -1.6 °F 1034.8 in Calm     93 % 0.0 in 54.0 W/m2 SCT
09:06 -0.6 °F -1.6 °F 1034.8 in Calm     93 % 0.0 in 74.0 W/m2 FEW
09:11 -0.6 °F -1.6 °F 1035.1 in Calm     93 % 0.0 in 86.0 W/m2 FEW
09:16 -0.6 °F -1.6 °F 1035.1 in Calm     93 % 0.0 in 86.0 W/m2 FEW
09:21 0.0 °F -1.0 °F 1035.1 in Calm     93 % 0.0 in 111.0 W/m2 CLR
09:26 0.0 °F -1.0 °F 1034.8 in Calm     93 % 0.0 in 125.0 W/m2 CLR
09:31 0.6 °F -0.4 °F 1034.8 in Calm     93 % 0.0 in 142.0 W/m2 CLR
09:36 0.6 °F -0.4 °F 1035.1 in Calm     93 % 0.0 in 156.0 W/m2 CLR
09:41 1.1 °F 0.1 °F 1035.1 in Calm     93 % 0.0 in 171.0 W/m2 CLR
09:46 1.1 °F 0.1 °F 1035.1 in Calm     93 % 0.0 in 130.0 W/m2 CLR
09:51 1.1 °F 0.1 °F 1034.8 in Calm     93 % 0.0 in 199.0 W/m2 CLR
09:56 1.7 °F 0.7 °F 1034.8 in Calm     93 % 0.0 in 100.0 W/m2 CLR
10:01 1.7 °F 0.7 °F 1035.1 in Calm     93 % 0.0 in 227.0 W/m2 CLR
10:06 2.2 °F 1.2 °F 1035.1 in Calm     93 % 0.0 in 239.0 W/m2 CLR
10:12 2.2 °F 1.2 °F 1034.8 in Calm     93 % 0.0 in 253.0 W/m2 CLR
10:17 2.8 °F 1.8 °F 1035.1 in Calm     93 % 0.0 in 267.0 W/m2 CLR
10:22 2.8 °F 1.6 °F 1035.1 in Calm     92 % 0.0 in 278.0 W/m2 CLR
10:27 3.3 °F 2.2 °F 1034.8 in Calm     92 % 0.0 in 290.0 W/m2 CLR
10:32 3.3 °F 2.0 °F 1035.1 in Calm     91 % 0.0 in 304.0 W/m2 CLR
10:37 4.4 °F 2.9 °F 1035.1 in Calm     90 % 0.0 in 315.0 W/m2 CLR
10:42 5.0 °F 3.3 °F 1035.1 in Calm     89 % 0.0 in 327.0 W/m2 CLR
10:47 5.6 °F 3.6 °F 1034.8 in Calm     87 % 0.0 in 339.0 W/m2 CLR
10:52 5.6 °F 3.4 °F 1035.1 in Calm     86 % 0.0 in 359.0 W/m2 CLR
10:57 6.1 °F 3.8 °F 1034.8 in Calm     85 % 0.0 in 376.0 W/m2 CLR
11:02 6.1 °F 3.4 °F 1034.8 in Calm     83 % 0.0 in 388.0 W/m2 CLR
11:07 6.7 °F 3.4 °F 1034.8 in Calm     80 % 0.0 in 397.0 W/m2 CLR
11:12 6.7 °F 3.1 °F 1034.8 in Calm     78 % 0.0 in 408.0 W/m2 CLR
11:17 7.8 °F 4.0 °F 1034.8 in Calm     77 % 0.0 in 418.0 W/m2 CLR
11:22 7.8 °F 4.0 °F 1034.8 in Calm     77 % 0.0 in 425.0 W/m2 CLR
11:27 7.8 °F 3.8 °F 1034.8 in Calm     76 % 0.0 in 434.0 W/m2 CLR
11:32 8.3 °F 4.3 °F 1034.8 in Calm     76 % 0.0 in 441.0 W/m2 CLR
11:37 8.3 °F 4.2 °F 1034.8 in Calm     75 % 0.0 in 452.0 W/m2 CLR
11:42 8.9 °F 4.7 °F 1034.8 in Calm     75 % 0.0 in 459.0 W/m2 CLR
11:47 8.9 °F 4.7 °F 1034.8 in Calm     75 % 0.0 in 466.0 W/m2 CLR
11:52 9.4 °F 5.1 °F 1034.8 in East 5.6 mph 5.6 mph 74 % 0.0 in 473.0 W/m2 CLR
11:57 9.4 °F 5.1 °F 1034.4 in East 5.6 mph 5.6 mph 74 % 0.0 in 480.0 W/m2 CLR
12:02 9.4 °F 5.1 °F 1034.4 in East 7.4 mph 7.4 mph 74 % 0.0 in 485.0 W/m2 CLR
12:07 10.0 °F 5.8 °F 1034.8 in ESE 9.3 mph 9.3 mph 75 % 0.0 in 492.0 W/m2 CLR
12:12 10.0 °F 5.2 °F 1034.4 in East 7.4 mph 7.4 mph 72 % 0.0 in 497.0 W/m2 CLR
12:17 10.6 °F 5.7 °F 1034.4 in East 9.3 mph 9.3 mph 72 % 0.0 in 503.0 W/m2 CLR
12:22 10.0 °F 5.2 °F 1034.4 in East 7.4 mph 7.4 mph 72 % 0.0 in 510.0 W/m2 CLR
12:27 10.0 °F 5.0 °F 1034.4 in East 7.4 mph 7.4 mph 71 % 0.0 in 517.0 W/m2 CLR
12:32 10.6 °F 5.5 °F 1034.1 in East 3.7 mph 3.7 mph 71 % 0.0 in 526.0 W/m2 CLR
12:37 10.6 °F 5.3 °F 1034.1 in ESE 7.4 mph 7.4 mph 70 % 0.0 in 534.0 W/m2 CLR
12:42 10.0 °F 4.6 °F 1034.1 in Calm     69 % 0.0 in 315.0 W/m2 CLR
12:47 10.0 °F 4.8 °F 1034.1 in ESE 3.7 mph 3.7 mph 70 % 0.0 in 450.0 W/m2 CLR
12:52 10.6 °F 5.3 °F 1033.7 in ESE 3.7 mph   70 % 0.0 in 446.0 W/m2 CLR
12:57 10.6 °F 5.3 °F 1033.7 in ESE 3.7 mph 3.7 mph 70 % 0.0 in 334.0 W/m2 CLR
13:02 11.1 °F 5.4 °F 1033.7 in ESE 5.6 mph 5.6 mph 68 % 0.0 in 376.0 W/m2 CLR
13:07 10.6 °F 4.9 °F 1033.4 in Calm     68 % 0.0 in 522.0 W/m2 CLR
13:12 11.1 °F 5.4 °F 1033.4 in Calm     68 % 0.0 in 582.0 W/m2 CLR
13:17 11.7 °F 6.2 °F 1033.4 in Calm     69 % 0.0 in 591.0 W/m2 CLR
13:22 12.2 °F 6.5 °F 1033.1 in Calm     68 % 0.0 in 594.0 W/m2 CLR
13:27 12.2 °F 6.3 °F 1033.1 in Calm     67 % 0.0 in 596.0 W/m2 CLR
13:32 12.2 °F 5.8 °F 1032.7 in Calm     65 % 0.0 in 547.0 W/m2 CLR
13:37 12.2 °F 5.8 °F 1032.7 in Calm     65 % 0.0 in 519.0 W/m2 CLR
13:42 12.2 °F 5.8 °F 1032.7 in ESE 1.9 mph 1.9 mph 65 % 0.0 in 559.0 W/m2 CLR
13:48 12.8 °F 5.7 °F 1032.7 in ESE 5.6 mph 5.6 mph 62 % 0.0 in 587.0 W/m2 CLR
13:53 13.3 °F 6.2 °F 1032.7 in ESE 1.6 mph 1.6 mph 62 % 0.0 in 587.0 W/m2 CLR
13:58 13.3 °F 6.7 °F 1032.7 in ESE 6.4 mph 6.4 mph 64 % 0.0 in 564.0 W/m2 CLR
14:03 12.8 °F 5.7 °F 1032.4 in ESE 11.1 mph 11.1 mph 62 % 0.0 in 575.0 W/m2 CLR
14:08 12.8 °F 6.1 °F 1032.4 in ESE 12.9 mph 12.9 mph 64 % 0.0 in 573.0 W/m2 CLR
14:13 12.8 °F 6.3 °F 1032.4 in East 13.0 mph 13.0 mph 65 % 0.0 in 570.0 W/m2 CLR
14:18 12.8 °F 6.1 °F 1032.4 in East 9.3 mph 9.3 mph 64 % 0.0 in 566.0 W/m2 CLR
14:23 12.8 °F 6.1 °F 1032.1 in SE 9.3 mph 9.3 mph 64 % 0.0 in 561.0 W/m2 CLR
14:28 12.8 °F 5.9 °F 1032.1 in SE 7.4 mph 7.4 mph 63 % 0.0 in 555.0 W/m2 CLR
14:33 12.8 °F 5.9 °F 1032.1 in East 14.8 mph 14.8 mph 63 % 0.0 in 545.0 W/m2 CLR
14:38 12.8 °F 5.7 °F 1032.1 in SE 5.6 mph 5.6 mph 62 % 0.0 in 531.0 W/m2 CLR
14:43 12.8 °F 5.2 °F 1032.1 in ENE 5.6 mph 5.6 mph 60 % 0.0 in 510.0 W/m2 CLR
14:48 13.3 °F 5.7 °F 1031.7 in ENE 5.6 mph 5.6 mph 60 % 0.0 in 492.0 W/m2 CLR
14:53 13.3 °F 5.7 °F 1031.7 in ENE 3.7 mph 3.7 mph 60 % 0.0 in 476.0 W/m2 CLR
14:58 13.3 °F 5.9 °F 1031.7 in Calm     61 % 0.0 in 461.0 W/m2 CLR
15:03 13.3 °F 5.5 °F 1031.7 in ESE 7.4 mph 7.4 mph 59 % 0.0 in 445.0 W/m2 CLR
15:08 12.8 °F 4.7 °F 1031.7 in ESE 7.4 mph 7.4 mph 58 % 0.0 in 431.0 W/m2 CLR
15:13 13.3 °F 5.5 °F 1031.7 in East 4.8 mph 4.8 mph 59 % 0.0 in 420.0 W/m2 CLR
15:18 13.3 °F 5.7 °F 1031.7 in East 8.0 mph 8.0 mph 60 % 0.0 in 411.0 W/m2 CLR
15:23 12.8 °F 5.2 °F 1031.7 in East 3.7 mph 3.7 mph 60 % 0.0 in 397.0 W/m2 CLR
15:28 13.3 °F 5.7 °F 1031.7 in ENE 13.0 mph 13.0 mph 60 % 0.0 in 387.0 W/m2 CLR
15:33 12.8 °F 5.2 °F 1031.7 in ENE 9.3 mph 9.3 mph 60 % 0.0 in 376.0 W/m2 CLR
15:38 12.8 °F 5.4 °F 1031.7 in ENE 5.6 mph 5.6 mph 61 % 0.0 in 367.0 W/m2 CLR
15:43 13.3 °F 5.9 °F 1031.7 in NE 5.6 mph 5.6 mph 61 % 0.0 in 353.0 W/m2 CLR
15:48 13.3 °F 5.9 °F 1031.7 in ENE 5.6 mph 5.6 mph 61 % 0.0 in 343.0 W/m2 CLR
15:53 13.3 °F 5.9 °F 1031.4 in East 5.6 mph 5.6 mph 61 % 0.0 in 330.0 W/m2 CLR
15:58 13.3 °F 5.5 °F 1031.4 in ENE 5.6 mph 5.6 mph 59 % 0.0 in 318.0 W/m2 CLR
16:03 12.8 °F 5.2 °F 1031.4 in NE 5.6 mph 5.6 mph 60 % 0.0 in 309.0 W/m2 CLR
16:08 12.8 °F 5.4 °F 1031.4 in ENE 6.4 mph 6.4 mph 61 % 0.0 in 294.0 W/m2 CLR
16:13 12.8 °F 5.2 °F 1031.4 in East 3.7 mph 3.7 mph 60 % 0.0 in 281.0 W/m2 CLR
16:18 12.8 °F 5.2 °F 1031.4 in ENE 3.7 mph 3.7 mph 60 % 0.0 in 267.0 W/m2 CLR
16:23 12.8 °F 5.4 °F 1031.4 in Calm     61 % 0.0 in 253.0 W/m2 CLR
16:28 12.8 °F 5.2 °F 1031.4 in ENE 6.4 mph 6.4 mph 60 % 0.0 in 236.0 W/m2 CLR
16:33 12.8 °F 5.2 °F 1031.4 in ENE 5.6 mph 5.6 mph 60 % 0.0 in 220.0 W/m2 CLR
16:38 12.8 °F 5.7 °F 1031.4 in Calm     62 % 0.0 in 204.0 W/m2 CLR
16:43 12.8 °F 5.4 °F 1031.0 in ENE 4.8 mph 4.8 mph 61 % 0.0 in 188.0 W/m2 CLR
16:48 12.8 °F 5.4 °F 1031.0 in NE 5.6 mph 5.6 mph 61 % 0.0 in 171.0 W/m2 CLR
16:53 12.2 °F 5.4 °F 1031.0 in NE 3.2 mph 3.2 mph 63 % 0.0 in 155.0 W/m2 CLR
16:58 12.2 °F 5.2 °F 1031.0 in Calm     62 % 0.0 in 139.0 W/m2 CLR
17:03 12.2 °F 5.2 °F 1031.0 in Calm     62 % 0.0 in 125.0 W/m2 CLR
17:08 11.7 °F 4.8 °F 1031.0 in Calm     63 % 0.0 in 113.0 W/m2 CLR
17:13 11.7 °F 4.8 °F 1031.0 in NE 1.6 mph 1.6 mph 63 % 0.0 in 97.0 W/m2 CLR
17:18 11.7 °F 5.1 °F 1030.7 in Calm     64 % 0.0 in 81.0 W/m2 CLR
17:23 11.1 °F 4.8 °F 1030.7 in Calm     65 % 0.0 in 70.0 W/m2 FEW
17:28 11.1 °F 4.6 °F 1030.7 in Calm     64 % 0.0 in 56.0 W/m2 SCT
17:33 10.6 °F 4.2 °F 1030.7 in Calm     65 % 0.0 in 47.0 W/m2 SCT
17:38 10.6 °F 4.2 °F 1030.7 in Calm     65 % 0.0 in 37.0 W/m2 BKN
17:43 10.0 °F 3.9 °F 1030.7 in Calm     66 % 0.0 in 28.0 W/m2 BKN
17:48 9.4 °F 3.4 °F 1030.7 in Calm     66 % 0.0 in 21.0 W/m2 BKN
17:53 9.4 °F 3.8 °F 1030.7 in Calm     68 % 0.0 in 16.0 W/m2 BKN
17:58 8.9 °F 3.3 °F 1030.7 in Calm     68 % 0.0 in 14.0 W/m2 BKN
18:03 8.3 °F 2.8 °F 1030.7 in Calm     68 % 0.0 in 11.0 W/m2 BKN
18:08 7.8 °F 2.4 °F 1030.7 in Calm     69 % 0.0 in 7.0 W/m2 BKN
18:13 7.8 °F 2.7 °F 1030.7 in Calm     70 % 0.0 in 5.0 W/m2 OVC
18:18 7.2 °F 2.1 °F 1030.7 in Calm     70 % 0.0 in 0.0 W/m2 OVC
18:23 7.2 °F 2.1 °F 1030.7 in Calm     70 % 0.0 in 0.0 W/m2 CLR
18:28 6.7 °F 1.8 °F 1030.7 in Calm     71 % 0.0 in 0.0 W/m2 CLR
18:33 6.7 °F 2.2 °F 1030.7 in Calm     73 % 0.0 in 0.0 W/m2 CLR
18:38 7.2 °F 2.9 °F 1030.7 in Calm     74 % 0.0 in 0.0 W/m2 CLR
18:43 7.2 °F 2.9 °F 1030.7 in Calm     74 % 0.0 in 0.0 W/m2 CLR
18:48 6.7 °F 2.7 °F 1030.7 in Calm     76 % 0.0 in 0.0 W/m2 CLR
18:53 6.7 °F 2.7 °F 1030.7 in Calm     76 % 0.0 in 0.0 W/m2 CLR
18:58 6.7 °F 2.9 °F 1030.7 in Calm     77 % 0.0 in 0.0 W/m2 CLR
19:03 6.1 °F 2.6 °F 1030.7 in Calm     78 % 0.0 in 0.0 W/m2 CLR
19:08 6.1 °F 2.7 °F 1030.7 in Calm     79 % 0.0 in 0.0 W/m2 CLR
19:13 6.1 °F 2.9 °F 1030.7 in Calm     80 % 0.0 in 0.0 W/m2 CLR
19:18 5.6 °F 2.6 °F 1031.0 in Calm     81 % 0.0 in 0.0 W/m2 CLR
19:23 5.6 °F 2.7 °F 1031.0 in Calm     82 % 0.0 in 0.0 W/m2 CLR
19:28 5.0 °F 2.3 °F 1031.0 in Calm     83 % 0.0 in 0.0 W/m2 CLR
19:34 5.0 °F 2.5 °F 1031.0 in Calm     84 % 0.0 in 0.0 W/m2 CLR
19:39 5.0 °F 2.3 °F 1031.0 in Calm     83 % 0.0 in 0.0 W/m2 CLR
19:44 4.4 °F 2.0 °F 1031.4 in Calm     84 % 0.0 in 0.0 W/m2 CLR
19:49 4.4 °F 2.0 °F 1031.4 in Calm     84 % 0.0 in 0.0 W/m2 CLR
19:54 3.9 °F 1.6 °F 1031.4 in Calm     85 % 0.0 in 0.0 W/m2 CLR
19:59 3.9 °F 1.8 °F 1031.4 in Calm     86 % 0.0 in 0.0 W/m2 CLR
20:04 3.9 °F 1.8 °F 1031.4 in Calm     86 % 0.0 in 0.0 W/m2 CLR
20:09 3.9 °F 1.8 °F 1031.4 in Calm     86 % 0.0 in 0.0 W/m2 CLR
20:14 3.9 °F 1.9 °F 1031.7 in Calm     87 % 0.0 in 0.0 W/m2 CLR
20:19 3.3 °F 1.4 °F 1031.4 in Calm     87 % 0.0 in 0.0 W/m2 CLR
20:24 3.3 °F 1.4 °F 1031.4 in Calm     87 % 0.0 in 0.0 W/m2 CLR
20:29 3.3 °F 1.4 °F 1031.4 in Calm     87 % 0.0 in 0.0 W/m2 CLR
20:34 3.3 °F 1.4 °F 1031.7 in Calm     87 % 0.0 in 0.0 W/m2 CLR
20:39 2.8 °F 0.8 °F 1031.7 in Calm     87 % 0.0 in 0.0 W/m2 CLR
20:44 2.8 °F 1.0 °F 1031.7 in Calm     88 % 0.0 in 0.0 W/m2 CLR
20:49 2.2 °F 0.4 °F 1031.7 in Calm     88 % 0.0 in 0.0 W/m2 CLR
20:54 2.2 °F 0.4 °F 1031.7 in Calm     88 % 0.0 in 0.0 W/m2 CLR
20:59 2.2 °F 0.4 °F 1031.7 in Calm     88 % 0.0 in 0.0 W/m2 CLR
21:04 2.2 °F 0.6 °F 1031.7 in Calm     89 % 0.0 in 0.0 W/m2 CLR
21:09 2.8 °F 1.2 °F 1031.7 in Calm     89 % 0.0 in 0.0 W/m2 CLR
21:14 2.8 °F 1.2 °F 1031.7 in Calm     89 % 0.0 in 0.0 W/m2 CLR
21:19 2.2 °F 0.6 °F 1032.1 in Calm     89 % 0.0 in 0.0 W/m2 CLR
21:24 2.2 °F 0.6 °F 1031.7 in Calm     89 % 0.0 in 0.0 W/m2 CLR
21:29 1.7 °F 0.1 °F 1031.7 in Calm     89 % 0.0 in 0.0 W/m2 CLR
21:34 1.7 °F 0.1 °F 1032.1 in Calm     89 % 0.0 in 0.0 W/m2 CLR
21:39 1.7 °F 0.1 °F 1031.7 in Calm     89 % 0.0 in 0.0 W/m2 CLR
21:44 1.7 °F 0.1 °F 1032.1 in Calm     89 % 0.0 in 0.0 W/m2 CLR
21:49 1.1 °F -0.5 °F 1031.7 in Calm     89 % 0.3 in 0.0 W/m2 RA
21:54 1.1 °F -0.5 °F 1031.7 in Calm     89 % 0.3 in 0.0 W/m2 CLR
21:59 1.7 °F 0.2 °F 1031.7 in Calm     90 % 0.3 in 0.0 W/m2 CLR
22:04 1.7 °F 0.2 °F 1031.7 in Calm     90 % 0.3 in 0.0 W/m2 CLR
22:09 2.2 °F 0.8 °F 1031.7 in Calm     90 % 0.3 in 0.0 W/m2 CLR
22:14 1.7 °F 0.2 °F 1031.7 in Calm     90 % 0.3 in 0.0 W/m2 CLR
22:19 1.7 °F 0.2 °F 1031.7 in Calm     90 % 0.3 in 0.0 W/m2 CLR
22:24 1.7 °F 0.2 °F 1031.7 in Calm     90 % 0.3 in 0.0 W/m2 CLR
22:29 1.7 °F 0.1 °F 1031.7 in Calm     89 % 0.3 in 0.0 W/m2 CLR
22:34 1.1 °F -0.3 °F 1031.7 in Calm     90 % 0.3 in 0.0 W/m2 CLR
22:39 1.1 °F -0.3 °F 1031.4 in Calm     90 % 0.3 in 0.0 W/m2 CLR
22:44 1.1 °F -0.3 °F 1031.4 in Calm     90 % 0.3 in 0.0 W/m2 CLR
22:49 1.1 °F -0.3 °F 1031.4 in Calm     90 % 0.0 in 0.0 W/m2 CLR
22:54 1.1 °F -0.3 °F 1031.7 in Calm     90 % 0.0 in 0.0 W/m2 CLR
23:00 1.1 °F -0.3 °F 1031.4 in Calm     90 % 0.0 in 0.0 W/m2 CLR
23:05 1.1 °F -0.3 °F 1031.7 in Calm     90 % 0.0 in 0.0 W/m2 CLR
23:10 1.1 °F -0.2 °F 1031.4 in Calm     91 % 0.0 in 0.0 W/m2 CLR
23:15 1.1 °F -0.3 °F 1031.4 in Calm     90 % 0.0 in 0.0 W/m2 CLR
23:20 1.1 °F -0.3 °F 1031.7 in Calm     90 % 0.0 in 0.0 W/m2 CLR
23:25 1.1 °F -0.3 °F 1031.4 in Calm     90 % 0.0 in 0.0 W/m2 CLR
23:30 0.6 °F -0.7 °F 1031.4 in Calm     91 % 0.0 in 0.0 W/m2 CLR
23:35 0.6 °F -0.7 °F 1031.4 in Calm     91 % 0.0 in 0.0 W/m2 CLR
23:40 0.6 °F -0.7 °F 1031.4 in Calm     91 % 0.0 in 0.0 W/m2 CLR
23:45 0.6 °F -0.7 °F 1031.4 in Calm     91 % 0.0 in 0.0 W/m2 CLR
23:50 0.6 °F -0.7 °F 1031.4 in Calm     91 % 0.0 in 0.0 W/m2 CLR
23:55 0.6 °F -0.7 °F 1031.4 in Calm     91 % 0.0 in 0.0 W/m2 CLR
Lo Temps de Massalio
Compliments of Weather Underground - 1.25 mb